createdAt,value
2018-08-24T00:00:04.893Z,64.34
2018-08-24T00:01:04.842Z,62.57
2018-08-24T00:02:04.836Z,61.13
2018-08-24T00:03:04.832Z,58.92
2018-08-24T00:04:04.807Z,56.51
2018-08-24T00:05:04.833Z,53.43
2018-08-24T00:06:04.800Z,47.08
2018-08-24T00:07:04.848Z,45.70
2018-08-24T00:08:04.880Z,37.43
2018-08-24T00:09:04.864Z,35.31
2018-08-24T00:10:04.848Z,31.37
2018-08-24T00:11:04.822Z,28.19
2018-08-24T00:12:04.868Z,25.58
2018-08-24T00:13:04.841Z,23.46
2018-08-24T00:14:04.959Z,21.54
2018-08-24T00:15:04.879Z,19.52
2018-08-24T00:16:04.859Z,19.04
2018-08-24T00:17:04.870Z,17.98
2018-08-24T00:18:04.857Z,18.37
2018-08-24T00:19:04.877Z,18.37
2018-08-24T00:20:04.849Z,17.79
2018-08-24T00:21:04.882Z,17.98
2018-08-24T00:22:04.857Z,18.18
2018-08-24T00:23:04.871Z,17.98
2018-08-24T00:24:04.907Z,16.83
2018-08-24T00:25:04.936Z,16.44
2018-08-24T00:26:04.908Z,17.31
2018-08-24T00:27:04.888Z,16.93
2018-08-24T00:28:04.908Z,15.77
2018-08-24T00:29:04.924Z,15.00
2018-08-24T00:30:04.910Z,17.21
2018-08-24T00:31:04.929Z,16.73
2018-08-24T00:32:04.935Z,16.25
2018-08-24T00:33:04.916Z,15.67
2018-08-24T00:34:04.922Z,16.44
2018-08-24T00:35:04.924Z,15.47
2018-08-24T00:36:05.030Z,16.16
2018-08-24T00:37:04.904Z,15.58
2018-08-24T00:38:04.903Z,15.29
2018-08-24T00:39:04.923Z,15.29
2018-08-24T00:40:04.941Z,16.35
2018-08-24T00:41:04.927Z,16.93
2018-08-24T00:42:04.936Z,16.64
2018-08-24T00:43:04.952Z,16.54
2018-08-24T00:44:04.944Z,16.73
2018-08-24T00:45:05.018Z,16.93
2018-08-24T00:46:04.945Z,17.21
2018-08-24T00:47:04.942Z,17.88
2018-08-24T00:48:04.943Z,18.18
2018-08-24T00:49:04.958Z,19.13
2018-08-24T00:50:05.797Z,19.90
2018-08-24T00:51:04.990Z,21.44
2018-08-24T00:52:04.967Z,20.77
2018-08-24T00:53:04.961Z,20.10
2018-08-24T00:54:04.996Z,22.11
2018-08-24T00:55:05.795Z,22.01
2018-08-24T00:56:05.004Z,21.24
2018-08-24T00:57:04.998Z,21.15
2018-08-24T00:58:04.996Z,21.34
2018-08-24T00:59:04.977Z,21.72
2018-08-24T01:00:04.974Z,21.44
2018-08-24T01:01:05.032Z,21.05
2018-08-24T01:02:04.997Z,21.62
2018-08-24T01:03:05.011Z,21.44
2018-08-24T01:04:04.977Z,22.41
2018-08-24T01:05:05.000Z,22.22
2018-08-24T01:06:04.999Z,22.60
2018-08-24T01:07:04.996Z,24.62
2018-08-24T01:08:05.003Z,25.10
2018-08-24T01:09:05.007Z,24.81
2018-08-24T01:10:05.041Z,24.99
2018-08-24T01:11:05.026Z,24.52
2018-08-24T01:12:05.008Z,24.14
2018-08-24T01:13:05.050Z,24.13
2018-08-24T01:14:05.052Z,24.81
2018-08-24T01:15:05.053Z,24.23
2018-08-24T01:16:05.024Z,24.23
2018-08-24T01:17:05.012Z,24.14
2018-08-24T01:18:05.092Z,27.31
2018-08-24T01:19:05.058Z,26.45
2018-08-24T01:20:05.030Z,26.93
2018-08-24T01:21:05.028Z,26.62
2018-08-24T01:22:05.075Z,26.05
2018-08-24T01:23:05.074Z,25.29
2018-08-24T01:24:05.030Z,24.13
2018-08-24T01:25:05.112Z,22.89
2018-08-24T01:26:05.046Z,22.78
2018-08-24T01:27:05.060Z,23.16
2018-08-24T01:28:05.085Z,23.16
2018-08-24T01:29:05.096Z,22.49
2018-08-24T01:30:05.071Z,21.53
2018-08-24T01:31:05.060Z,23.26
2018-08-24T01:32:05.072Z,20.18
2018-08-24T01:33:05.119Z,19.42
2018-08-24T01:34:05.813Z,19.23
2018-08-24T01:35:05.083Z,18.36
2018-08-24T01:36:05.098Z,18.54
2018-08-24T01:37:05.097Z,18.74
2018-08-24T01:38:05.111Z,17.40
2018-08-24T01:39:05.117Z,17.21
2018-08-24T01:40:05.112Z,16.82
2018-08-24T01:41:05.099Z,17.29
2018-08-24T01:42:05.123Z,17.10
2018-08-24T01:43:05.100Z,19.02
2018-08-24T01:44:05.100Z,19.79
2018-08-24T01:45:05.140Z,22.67
2018-08-24T01:46:05.120Z,24.50
2018-08-24T01:47:05.137Z,27.09
2018-08-24T01:48:05.125Z,26.71
2018-08-24T01:49:05.182Z,28.34
2018-08-24T01:50:05.185Z,29.02
2018-08-24T01:51:05.142Z,30.26
2018-08-24T01:52:05.121Z,28.92
2018-08-24T01:53:05.152Z,31.32
2018-08-24T01:54:05.126Z,30.55
2018-08-24T01:55:05.136Z,30.46
2018-08-24T01:56:05.129Z,28.82
2018-08-24T01:57:05.154Z,27.76
2018-08-24T01:58:05.217Z,25.84
2018-08-24T01:59:05.167Z,25.65
2018-08-24T02:00:05.229Z,23.35
2018-08-24T02:01:05.188Z,28.05
2018-08-24T02:02:05.330Z,26.42
2018-08-24T02:03:05.178Z,26.32
2018-08-24T02:04:05.160Z,29.02
2018-08-24T02:05:05.180Z,29.69
2018-08-24T02:06:05.196Z,30.46
2018-08-24T02:07:05.165Z,32.55
2018-08-24T02:08:05.156Z,29.77
2018-08-24T02:09:05.169Z,36.01
2018-08-24T02:10:05.174Z,37.35
2018-08-24T02:11:05.194Z,39.95
2018-08-24T02:12:05.170Z,39.95
2018-08-24T02:13:05.184Z,39.85
2018-08-24T02:14:05.185Z,39.18
2018-08-24T02:15:05.829Z,39.76
2018-08-24T02:16:05.205Z,43.70
2018-08-24T02:17:05.217Z,42.64
2018-08-24T02:18:05.196Z,41.20
2018-08-24T02:19:05.200Z,41.00
2018-08-24T02:20:05.199Z,37.64
2018-08-24T02:21:05.219Z,48.69
2018-08-24T02:22:05.250Z,48.69
2018-08-24T02:23:05.214Z,52.53
2018-08-24T02:24:05.876Z,52.43
2018-08-24T02:25:07.336Z,50.99
2018-08-24T02:26:06.846Z,53.78
2018-08-24T02:27:06.339Z,53.30
2018-08-24T02:28:05.305Z,56.08
2018-08-24T02:29:05.250Z,56.15
2018-08-24T02:30:05.231Z,54.61
2018-08-24T02:31:05.266Z,53.36
2018-08-24T02:32:05.277Z,51.16
2018-08-24T02:33:05.244Z,53.27
2018-08-24T02:34:05.302Z,54.61
2018-08-24T02:35:05.291Z,53.08
2018-08-24T02:36:05.299Z,54.13
2018-08-24T02:37:05.246Z,53.75
2018-08-24T02:38:05.308Z,55.29
2018-08-24T02:39:05.243Z,54.61
2018-08-24T02:40:05.273Z,55.26
2018-08-24T02:41:05.260Z,54.39
2018-08-24T02:42:05.321Z,53.63
2018-08-24T02:43:05.290Z,52.76
2018-08-24T02:44:05.300Z,51.42
2018-08-24T02:45:05.349Z,51.61
2018-08-24T02:46:05.300Z,49.88
2018-08-24T02:47:05.294Z,49.50
2018-08-24T02:48:05.333Z,49.02
2018-08-24T02:49:05.304Z,48.16
2018-08-24T02:50:05.303Z,47.30
2018-08-24T02:51:05.317Z,45.28
2018-08-24T02:52:05.323Z,45.95
2018-08-24T02:53:05.331Z,45.76
2018-08-24T02:54:05.327Z,46.43
2018-08-24T02:55:05.318Z,48.25
2018-08-24T02:56:05.410Z,51.32
2018-08-24T02:57:05.296Z,49.60
2018-08-24T02:58:05.341Z,49.31
2018-08-24T02:59:05.302Z,47.87
2018-08-24T03:00:05.339Z,46.79
2018-08-24T03:01:05.361Z,44.42
2018-08-24T03:02:05.331Z,45.76
2018-08-24T03:03:05.315Z,45.74
2018-08-24T03:04:05.357Z,44.30
2018-08-24T03:05:05.378Z,42.57
2018-08-24T03:06:05.344Z,43.17
2018-08-24T03:07:05.366Z,42.57
2018-08-24T03:08:05.360Z,39.98
2018-08-24T03:09:05.373Z,39.98
2018-08-24T03:10:05.356Z,40.00
2018-08-24T03:11:05.388Z,40.08
2018-08-24T03:12:05.358Z,39.89
2018-08-24T03:13:05.343Z,39.12
2018-08-24T03:14:05.393Z,38.83
2018-08-24T03:15:05.379Z,38.64
2018-08-24T03:16:05.472Z,36.63
2018-08-24T03:17:05.352Z,36.44
2018-08-24T03:18:05.350Z,36.15
2018-08-24T03:19:05.352Z,36.34
2018-08-24T03:20:05.360Z,35.10
2018-08-24T03:21:05.363Z,36.72
2018-08-24T03:22:05.362Z,36.44
2018-08-24T03:23:05.376Z,36.74
2018-08-24T03:24:05.411Z,36.82
2018-08-24T03:25:05.404Z,35.57
2018-08-24T03:26:05.381Z,33.86
2018-08-24T03:27:05.378Z,35.11
2018-08-24T03:28:05.430Z,34.73
2018-08-24T03:29:05.392Z,35.59
2018-08-24T03:30:05.410Z,36.16
2018-08-24T03:31:05.421Z,37.41
2018-08-24T03:32:05.427Z,37.41
2018-08-24T03:33:05.430Z,34.92
2018-08-24T03:34:05.386Z,35.02
2018-08-24T03:35:05.410Z,35.02
2018-08-24T03:36:05.449Z,35.40
2018-08-24T03:37:05.431Z,34.25
2018-08-24T03:38:05.443Z,33.29
2018-08-24T03:39:05.443Z,31.66
2018-08-24T03:40:05.423Z,29.74
2018-08-24T03:41:05.456Z,29.93
2018-08-24T03:42:05.543Z,29.83
2018-08-24T03:43:05.430Z,30.51
2018-08-24T03:44:05.427Z,31.18
2018-08-24T03:45:05.445Z,32.04
2018-08-24T03:46:05.462Z,31.85
2018-08-24T03:47:05.449Z,32.71
2018-08-24T03:48:05.485Z,33.29
2018-08-24T03:49:05.457Z,33.58
2018-08-24T03:50:05.439Z,34.06
2018-08-24T03:51:05.487Z,34.34
2018-08-24T03:52:05.455Z,34.92
2018-08-24T03:53:05.495Z,35.11
2018-08-24T03:54:05.475Z,35.40
2018-08-24T03:55:05.436Z,35.49
2018-08-24T03:56:05.459Z,35.69
2018-08-24T03:57:05.453Z,35.11
2018-08-24T03:58:05.487Z,32.71
2018-08-24T03:59:05.494Z,32.62
2018-08-24T04:00:05.467Z,33.39
2018-08-24T04:01:05.458Z,34.15
2018-08-24T04:02:05.475Z,33.77
2018-08-24T04:03:05.468Z,33.67
2018-08-24T04:04:05.494Z,32.81
2018-08-24T04:05:05.478Z,34.15
2018-08-24T04:06:05.484Z,33.96
2018-08-24T04:07:05.473Z,35.11
2018-08-24T04:08:05.507Z,34.15
2018-08-24T04:09:05.516Z,36.28
2018-08-24T04:10:05.489Z,34.82
2018-08-24T04:11:05.517Z,34.06
2018-08-24T04:12:05.531Z,33.96
2018-08-24T04:13:05.527Z,33.77
2018-08-24T04:14:05.538Z,31.75
2018-08-24T04:15:05.513Z,31.37
2018-08-24T04:16:05.531Z,30.89
2018-08-24T04:17:05.528Z,31.37
2018-08-24T04:18:05.533Z,31.37
2018-08-24T04:19:05.558Z,30.41
2018-08-24T04:20:05.517Z,29.74
2018-08-24T04:21:05.577Z,29.06
2018-08-24T04:22:05.551Z,28.68
2018-08-24T04:23:05.536Z,28.59
2018-08-24T04:24:05.547Z,28.39
2018-08-24T04:25:05.568Z,27.82
2018-08-24T04:26:05.632Z,29.16
2018-08-24T04:27:05.536Z,29.55
2018-08-24T04:28:05.537Z,31.08
2018-08-24T04:29:05.548Z,31.75
2018-08-24T04:30:05.558Z,32.34
2018-08-24T04:31:05.547Z,32.44
2018-08-24T04:32:05.574Z,34.07
2018-08-24T04:33:05.573Z,34.07
2018-08-24T04:34:05.581Z,32.90
2018-08-24T04:35:05.697Z,32.54
2018-08-24T04:36:05.556Z,33.11
2018-08-24T04:37:05.582Z,32.06
2018-08-24T04:38:05.597Z,31.87
2018-08-24T04:39:05.586Z,32.06
2018-08-24T04:40:05.647Z,31.77
2018-08-24T04:41:05.605Z,31.87
2018-08-24T04:42:05.591Z,30.81
2018-08-24T04:43:05.605Z,31.29
2018-08-24T04:44:05.615Z,28.99
2018-08-24T04:45:05.573Z,28.22
2018-08-24T04:46:05.584Z,28.60
2018-08-24T04:47:05.621Z,28.50
2018-08-24T04:48:05.718Z,27.26
2018-08-24T04:49:05.598Z,25.82
2018-08-24T04:50:05.649Z,24.66
2018-08-24T04:51:05.592Z,24.27
2018-08-24T04:52:05.607Z,23.21
2018-08-24T04:53:05.600Z,22.75
2018-08-24T04:54:05.662Z,23.03
2018-08-24T04:55:05.615Z,22.55
2018-08-24T04:56:05.636Z,21.69
2018-08-24T04:57:05.633Z,21.59
2018-08-24T04:58:05.639Z,21.50
2018-08-24T04:59:05.695Z,21.31
2018-08-24T05:00:05.629Z,21.31
2018-08-24T05:01:05.737Z,20.64
2018-08-24T05:02:05.644Z,20.44
2018-08-24T05:03:05.651Z,19.67
2018-08-24T05:04:05.644Z,19.87
2018-08-24T05:05:05.789Z,19.77
2018-08-24T05:06:05.663Z,19.00
2018-08-24T05:07:05.680Z,20.06
2018-08-24T05:08:05.649Z,20.15
2018-08-24T05:09:05.670Z,19.38
2018-08-24T05:10:05.645Z,18.43
2018-08-24T05:11:05.656Z,18.81
2018-08-24T05:12:05.678Z,18.62
2018-08-24T05:13:05.653Z,18.14
2018-08-24T05:14:05.770Z,17.56
2018-08-24T05:15:05.749Z,18.33
2018-08-24T05:16:05.700Z,18.52
2018-08-24T05:17:05.690Z,19.10
2018-08-24T05:18:07.532Z,19.00
2018-08-24T05:19:05.724Z,18.62
2018-08-24T05:20:05.699Z,18.04
2018-08-24T05:21:05.768Z,17.56
2018-08-24T05:22:05.709Z,17.47
2018-08-24T05:23:05.713Z,17.37
2018-08-24T05:24:05.685Z,18.14
2018-08-24T05:25:05.705Z,17.85
2018-08-24T05:26:05.708Z,18.24
2018-08-24T05:27:05.704Z,18.04
2018-08-24T05:28:05.719Z,18.43
2018-08-24T05:29:05.703Z,18.81
2018-08-24T05:30:05.765Z,18.91
2018-08-24T05:31:05.759Z,19.20
2018-08-24T05:32:05.822Z,19.20
2018-08-24T05:33:05.894Z,19.68
2018-08-24T05:34:05.737Z,20.36
2018-08-24T05:35:05.777Z,21.12
2018-08-24T05:36:05.740Z,22.08
2018-08-24T05:37:05.733Z,22.56
2018-08-24T05:38:06.407Z,22.76
2018-08-24T05:39:05.754Z,23.05
2018-08-24T05:40:05.712Z,23.14
2018-08-24T05:41:05.753Z,23.24
2018-08-24T05:42:05.769Z,23.43
2018-08-24T05:43:05.758Z,23.62
2018-08-24T05:44:05.764Z,25.06
2018-08-24T05:45:06.410Z,24.01
2018-08-24T05:46:05.767Z,24.49
2018-08-24T05:47:05.771Z,24.96
2018-08-24T05:48:05.756Z,24.39
2018-08-24T05:49:05.746Z,24.68
2018-08-24T05:50:05.740Z,27.94
2018-08-24T05:51:05.759Z,27.17
2018-08-24T05:52:05.813Z,26.79
2018-08-24T05:53:05.746Z,24.87
2018-08-24T05:54:05.794Z,25.83
2018-08-24T05:55:05.977Z,26.03
2018-08-24T05:56:05.783Z,26.98
2018-08-24T05:57:05.765Z,27.08
2018-08-24T05:58:06.414Z,27.66
2018-08-24T05:59:05.783Z,27.75
2018-08-24T06:00:05.776Z,28.71
2018-08-24T06:01:05.791Z,27.84
2018-08-24T06:02:05.819Z,26.70
2018-08-24T06:03:05.802Z,26.70
2018-08-24T06:04:05.789Z,26.79
2018-08-24T06:05:05.829Z,26.03
2018-08-24T06:06:05.900Z,26.79
2018-08-24T06:07:05.814Z,26.50
2018-08-24T06:08:05.919Z,26.50
2018-08-24T06:09:05.844Z,26.98
2018-08-24T06:10:06.675Z,27.84
2018-08-24T06:11:05.991Z,28.71
2018-08-24T06:12:06.083Z,28.52
2018-08-24T06:13:05.871Z,29.00
2018-08-24T06:14:05.807Z,28.91
2018-08-24T06:15:05.852Z,29.30
2018-08-24T06:16:06.424Z,30.74
2018-08-24T06:17:05.841Z,31.90
2018-08-24T06:18:05.877Z,31.61
2018-08-24T06:19:06.425Z,31.69
2018-08-24T06:20:05.830Z,30.36
2018-08-24T06:21:05.828Z,29.86
2018-08-24T06:22:05.834Z,29.28
2018-08-24T06:24:38.380Z,28.52
2018-08-24T06:25:38.153Z,27.94
2018-08-24T06:26:38.203Z,27.08
2018-08-24T06:27:38.208Z,27.27
2018-08-24T06:28:38.141Z,26.79
2018-08-24T06:29:38.141Z,25.73
2018-08-24T06:30:38.135Z,26.50
2018-08-24T06:31:38.192Z,26.89
2018-08-24T06:32:38.210Z,28.71
2018-08-24T06:33:38.225Z,29.28
2018-08-24T06:34:38.155Z,29.00
2018-08-24T06:35:38.236Z,29.11
2018-08-24T06:36:38.134Z,28.81
2018-08-24T06:37:38.199Z,27.86
2018-08-24T06:38:38.185Z,27.38
2018-08-24T06:39:38.211Z,27.38
2018-08-24T06:40:38.166Z,28.34
2018-08-24T06:41:38.196Z,26.71
2018-08-24T06:42:38.166Z,27.00
2018-08-24T06:43:38.229Z,30.36
2018-08-24T06:44:38.160Z,31.51
2018-08-24T06:45:38.233Z,31.41
2018-08-24T06:46:38.176Z,30.74
2018-08-24T06:47:38.206Z,31.32
2018-08-24T06:48:38.178Z,32.67
2018-08-24T06:49:38.232Z,33.91
2018-08-24T06:50:38.186Z,35.16
2018-08-24T06:51:38.207Z,36.51
2018-08-24T06:52:38.204Z,37.10
2018-08-24T06:53:38.279Z,38.84
2018-08-24T06:54:38.303Z,40.28
2018-08-24T06:55:38.200Z,44.70
2018-08-24T06:56:38.381Z,40.56
2018-08-24T06:57:38.236Z,40.37
2018-08-24T06:58:38.241Z,40.37
2018-08-24T06:59:38.237Z,41.43
2018-08-24T07:00:38.329Z,39.70
2018-08-24T07:01:38.304Z,36.70
2018-08-24T07:02:38.466Z,35.38
2018-08-24T07:03:38.322Z,37.37
2018-08-24T07:04:38.291Z,38.72
2018-08-24T07:05:38.302Z,37.66
2018-08-24T07:06:38.310Z,37.59
2018-08-24T07:07:38.242Z,38.93
2018-08-24T07:08:38.441Z,39.99
2018-08-24T07:09:38.314Z,40.37
2018-08-24T07:10:38.229Z,42.49
2018-08-24T07:11:38.331Z,41.05
2018-08-24T07:12:38.286Z,39.70
2018-08-24T07:13:38.339Z,41.82
2018-08-24T07:14:38.309Z,43.84
2018-08-24T07:15:38.299Z,41.91
2018-08-24T07:16:38.432Z,40.37
2018-08-24T07:17:38.276Z,39.79
2018-08-24T07:18:38.306Z,41.43
2018-08-24T07:19:38.260Z,42.68
2018-08-24T07:20:38.401Z,42.10
2018-08-24T07:21:38.314Z,40.66
2018-08-24T07:22:38.338Z,42.77
2018-08-24T07:23:38.317Z,42.10
2018-08-24T07:24:38.323Z,42.58
2018-08-24T07:25:38.308Z,43.54
2018-08-24T07:26:38.573Z,43.45
2018-08-24T07:27:38.308Z,42.50
2018-08-24T07:28:38.438Z,41.82
2018-08-24T07:29:38.324Z,39.51
2018-08-24T07:30:38.300Z,37.01
2018-08-24T07:31:38.294Z,43.64
2018-08-24T07:32:38.330Z,45.39
2018-08-24T07:33:38.336Z,45.18
2018-08-24T07:34:38.359Z,47.51
2018-08-24T07:35:38.423Z,48.08
2018-08-24T07:36:38.352Z,50.10
2018-08-24T07:37:38.384Z,50.10
2018-08-24T07:38:38.332Z,53.86
2018-08-24T07:39:38.409Z,53.47
2018-08-24T07:40:38.544Z,53.28
2018-08-24T07:41:39.070Z,52.22
2018-08-24T07:42:38.345Z,50.68
2018-08-24T07:43:38.471Z,51.93
2018-08-24T07:44:38.491Z,50.78
2018-08-24T07:45:38.408Z,54.05
2018-08-24T07:46:38.416Z,54.43
2018-08-24T07:47:38.345Z,54.91
2018-08-24T07:48:41.176Z,55.01
2018-08-24T07:49:38.390Z,58.57
2018-08-24T07:50:38.372Z,58.18
2018-08-24T07:51:39.293Z,55.98
2018-08-24T07:56:11.814Z,58.76
2018-08-24T07:57:15.282Z,60.21
2018-08-24T07:58:12.237Z,58.28
2018-08-24T07:59:11.946Z,59.24
2018-08-24T08:00:11.509Z,60.49
2018-08-24T08:01:11.397Z,59.82
2018-08-24T08:02:11.366Z,57.51
2018-08-24T08:03:11.533Z,57.42
2018-08-24T08:04:11.418Z,51.74
2018-08-24T08:05:11.532Z,52.03
2018-08-24T08:06:11.947Z,50.87
2018-08-24T08:07:11.946Z,52.10
2018-08-24T08:08:11.984Z,51.64
2018-08-24T08:09:11.984Z,57.29
2018-08-24T08:10:11.586Z,62.48
2018-08-24T08:11:11.546Z,60.27
2018-08-24T08:12:11.554Z,63.92
2018-08-24T08:13:11.768Z,67.10
2018-08-24T08:14:11.718Z,65.46
2018-08-24T08:15:11.493Z,70.07
2018-08-24T08:16:11.646Z,71.91
2018-08-24T08:17:11.467Z,73.44
2018-08-24T08:18:11.537Z,71.65
2018-08-24T08:19:12.128Z,74.63
2018-08-24T08:20:14.283Z,75.88
2018-08-24T08:21:11.456Z,74.25
2018-08-24T08:22:14.726Z,76.17
2018-08-24T08:24:45.002Z,81.42
2018-08-24T08:25:44.408Z,81.13
2018-08-24T08:27:41.689Z,83.39
2018-08-24T08:28:43.299Z,84.54
2018-08-24T08:29:39.427Z,89.73
2018-08-24T08:30:37.065Z,88.67
2018-08-24T08:31:37.174Z,91.46
2018-08-24T08:32:37.499Z,88.81
2018-08-24T08:33:37.468Z,96.70
2018-08-24T08:34:37.090Z,93.43
2018-08-24T08:35:37.105Z,93.72
2018-08-24T08:36:37.181Z,97.67
2018-08-24T08:37:39.314Z,93.72
2018-08-24T08:38:37.100Z,95.07
2018-08-24T08:39:38.237Z,95.65
2018-08-24T08:40:38.671Z,94.68
2018-08-24T08:41:38.630Z,97.76
2018-08-24T08:42:40.081Z,96.51
2018-08-24T08:43:37.159Z,99.99
2018-08-24T08:44:39.886Z,99.99
2018-08-24T08:45:37.183Z,99.99
2018-08-24T08:46:37.880Z,99.99
2018-08-24T08:47:37.136Z,99.99
2018-08-24T08:48:37.424Z,99.99
2018-08-24T08:49:37.272Z,99.99
2018-08-24T08:50:37.190Z,96.41
2018-08-24T08:51:37.014Z,92.88
2018-08-24T08:52:37.060Z,91.28
2018-08-24T08:53:37.144Z,89.68
2018-08-24T08:54:37.540Z,88.13
2018-08-24T08:55:37.759Z,87.45
2018-08-24T08:56:37.109Z,87.60
2018-08-24T08:57:37.133Z,89.29
2018-08-24T08:58:37.150Z,90.85
2018-08-24T08:59:37.103Z,91.29
2018-08-24T09:00:37.268Z,93.66
2018-08-24T09:01:37.083Z,95.06
2018-08-24T09:02:37.074Z,97.28
2018-08-24T09:03:37.105Z,98.49
2018-08-24T09:04:37.109Z,98.44
2018-08-24T09:05:37.121Z,96.89
2018-08-24T09:06:37.125Z,97.72
2018-08-24T09:07:37.122Z,97.67
2018-08-24T09:08:37.168Z,96.89
2018-08-24T09:09:37.152Z,95.54
2018-08-24T09:10:37.128Z,96.46
2018-08-24T09:11:37.200Z,96.84
2018-08-24T09:12:37.187Z,94.24
2018-08-24T09:13:37.222Z,92.25
2018-08-24T09:14:37.337Z,87.03
2018-08-24T09:15:37.160Z,85.66
2018-08-24T09:16:37.429Z,82.35
2018-08-24T09:17:37.188Z,77.67
2018-08-24T09:18:37.256Z,75.98
2018-08-24T09:19:37.195Z,77.96
2018-08-24T09:20:37.232Z,79.45
2018-08-24T09:21:37.193Z,77.20
2018-08-24T09:22:37.230Z,77.12
2018-08-24T09:23:37.246Z,78.83
2018-08-24T09:24:37.291Z,81.32
2018-08-24T09:25:37.279Z,84.19
2018-08-24T09:26:37.430Z,85.05
2018-08-24T09:27:37.277Z,86.61
2018-08-24T09:28:37.270Z,89.75
2018-08-24T09:29:37.491Z,93.62
2018-08-24T09:30:37.354Z,95.59
2018-08-24T09:31:37.263Z,99.88
2018-08-24T09:32:37.380Z,99.99
2018-08-24T09:33:37.306Z,99.45
2018-08-24T09:34:37.300Z,99.93
2018-08-24T09:35:37.345Z,99.99
2018-08-24T09:36:38.040Z,99.74
2018-08-24T09:37:37.306Z,98.15
2018-08-24T09:38:37.386Z,98.24
2018-08-24T09:39:37.521Z,98.49
2018-08-24T09:40:37.374Z,99.35
2018-08-24T09:41:37.331Z,98.49
2018-08-24T09:42:37.327Z,98.77
2018-08-24T09:43:37.337Z,98.44
2018-08-24T09:44:37.370Z,95.40
2018-08-24T09:45:37.357Z,95.31
2018-08-24T09:46:37.392Z,89.35
2018-08-24T09:47:37.379Z,85.18
2018-08-24T09:48:37.373Z,80.96
2018-08-24T09:49:37.568Z,77.90
2018-08-24T09:50:37.377Z,75.26
2018-08-24T09:51:37.386Z,71.74
2018-08-24T09:52:37.409Z,74.15
2018-08-24T09:53:37.423Z,73.99
2018-08-24T09:54:37.764Z,74.49
2018-08-24T09:55:38.695Z,76.62
2018-08-24T09:56:37.411Z,77.38
2018-08-24T09:57:37.620Z,78.13
2018-08-24T09:58:38.046Z,75.85
2018-08-24T09:59:37.484Z,72.09
2018-08-24T10:00:37.453Z,68.79
2018-08-24T10:01:37.477Z,66.86
2018-08-24T10:02:37.479Z,64.81
2018-08-24T10:03:37.459Z,63.23
2018-08-24T10:04:37.472Z,63.07
2018-08-24T10:05:37.486Z,62.41
2018-08-24T10:06:37.493Z,61.63
2018-08-24T10:07:38.217Z,59.23
2018-08-24T10:08:37.502Z,58.89
2018-08-24T10:09:37.535Z,58.44
2018-08-24T10:10:37.665Z,56.93
2018-08-24T10:11:37.588Z,56.82
2018-08-24T10:12:38.122Z,59.75
2018-08-24T10:13:37.700Z,60.05
2018-08-24T10:14:39.245Z,60.51
2018-08-24T10:15:37.597Z,64.20
2018-08-24T10:16:37.627Z,67.11
2018-08-24T10:17:37.619Z,69.04
2018-08-24T10:18:37.647Z,70.72
2018-08-24T10:19:37.701Z,73.44
2018-08-24T10:20:37.704Z,74.12
2018-08-24T10:21:37.654Z,75.09
2018-08-24T10:22:37.655Z,75.82
2018-08-24T10:23:37.663Z,76.78
2018-08-24T10:24:37.674Z,77.07
2018-08-24T10:25:37.665Z,77.26
2018-08-24T10:26:37.678Z,77.46
2018-08-24T10:27:37.664Z,76.88
2018-08-24T10:28:37.693Z,71.84
2018-08-24T10:29:37.712Z,68.60
2018-08-24T10:30:37.760Z,64.01
2018-08-24T10:31:38.034Z,62.23
2018-08-24T10:32:37.733Z,60.48
2018-08-24T10:33:37.899Z,60.35
2018-08-24T10:34:37.728Z,61.94
2018-08-24T10:35:37.731Z,63.91
2018-08-24T10:36:37.899Z,62.55
2018-08-24T10:37:37.760Z,62.00
2018-08-24T10:38:37.790Z,60.28
2018-08-24T10:39:37.787Z,59.79
2018-08-24T10:40:38.114Z,59.63
2018-08-24T10:41:37.896Z,58.17
2018-08-24T10:42:37.856Z,57.75
2018-08-24T10:43:37.863Z,57.07
2018-08-24T10:44:37.901Z,57.87
2018-08-24T10:45:37.861Z,57.59
2018-08-24T10:46:37.925Z,56.81
2018-08-24T10:47:37.922Z,55.83
2018-08-24T10:48:37.960Z,56.65
2018-08-24T10:49:37.939Z,58.31
2018-08-24T10:50:37.940Z,56.85
2018-08-24T10:51:37.969Z,58.69
2018-08-24T10:52:37.940Z,61.69
2018-08-24T10:53:37.969Z,65.72
2018-08-24T10:54:37.990Z,66.11
2018-08-24T10:55:38.007Z,61.65
2018-08-24T10:56:38.584Z,58.80
2018-08-24T10:57:38.006Z,56.37
2018-08-24T10:58:38.013Z,54.10
2018-08-24T10:59:38.052Z,53.25
2018-08-24T11:00:38.068Z,53.42
2018-08-24T11:01:38.193Z,55.10
2018-08-24T11:02:38.084Z,53.67
2018-08-24T11:03:38.121Z,54.90
2018-08-24T11:04:38.289Z,54.05
2018-08-24T11:05:38.168Z,54.61
2018-08-24T11:06:38.162Z,54.66
2018-08-24T11:07:38.309Z,54.03
2018-08-24T11:08:38.628Z,53.71
2018-08-24T11:09:38.199Z,51.16
2018-08-24T11:10:38.216Z,52.74
2018-08-24T11:11:38.189Z,52.47
2018-08-24T11:12:38.214Z,51.79
2018-08-24T11:13:38.239Z,52.03
2018-08-24T11:14:38.280Z,52.62
2018-08-24T11:15:38.339Z,53.34
2018-08-24T11:16:38.310Z,54.86
2018-08-24T11:17:38.319Z,55.35
2018-08-24T11:18:38.287Z,55.62
2018-08-24T11:19:38.269Z,56.29
2018-08-24T11:20:38.376Z,56.16
2018-08-24T11:21:38.538Z,56.87
2018-08-24T11:22:38.397Z,57.17
2018-08-24T11:23:38.338Z,56.77
2018-08-24T11:24:38.417Z,57.81
2018-08-24T11:25:38.489Z,58.85
2018-08-24T11:26:38.504Z,58.85
2018-08-24T11:27:38.372Z,59.43
2018-08-24T11:28:38.441Z,59.33
2018-08-24T11:29:38.397Z,59.23
2018-08-24T11:30:38.663Z,60.21
2018-08-24T11:31:38.457Z,61.46
2018-08-24T11:32:39.701Z,61.24
2018-08-24T11:33:38.475Z,60.24
2018-08-24T11:34:38.542Z,61.05
2018-08-24T11:35:38.597Z,61.43
2018-08-24T11:36:38.579Z,60.01
2018-08-24T11:37:38.562Z,61.76
2018-08-24T11:38:38.771Z,59.72
2018-08-24T11:39:39.164Z,58.63
2018-08-24T11:40:38.752Z,59.43
2018-08-24T11:41:39.200Z,59.21
2018-08-24T11:42:38.479Z,59.38
2018-08-24T11:43:39.318Z,60.92
2018-08-24T11:44:39.128Z,61.60
2018-08-24T11:45:38.496Z,60.82
2018-08-24T11:46:38.549Z,61.69
2018-08-24T11:47:38.520Z,59.86
2018-08-24T11:48:38.819Z,60.37
2018-08-24T11:49:38.526Z,60.34
2018-08-24T11:50:38.585Z,60.85
2018-08-24T11:51:38.624Z,60.11
2018-08-24T11:52:38.785Z,59.46
2018-08-24T11:53:38.741Z,57.75
2018-08-24T11:54:38.638Z,57.87
2018-08-24T11:55:38.592Z,57.87
2018-08-24T11:56:38.592Z,57.29
2018-08-24T11:57:38.624Z,57.90
2018-08-24T11:58:38.653Z,58.00
2018-08-24T11:59:38.716Z,58.09
2018-08-24T12:00:38.914Z,57.42
2018-08-24T12:01:38.705Z,58.00
2018-08-24T12:02:38.758Z,56.93
2018-08-24T12:03:38.672Z,57.70
2018-08-24T12:04:38.665Z,58.12
2018-08-24T12:05:38.722Z,56.54
2018-08-24T12:06:38.669Z,56.49
2018-08-24T12:07:39.160Z,56.10
2018-08-24T12:08:38.700Z,57.94
2018-08-24T12:09:38.695Z,58.01
2018-08-24T12:10:38.788Z,57.62
2018-08-24T12:11:38.711Z,58.62
2018-08-24T12:12:38.906Z,59.69
2018-08-24T12:13:38.688Z,58.16
2018-08-24T12:14:38.913Z,57.32
2018-08-24T12:15:38.717Z,58.09
2018-08-24T12:16:38.692Z,56.64
2018-08-24T12:17:38.798Z,55.87
2018-08-24T12:18:38.696Z,56.83
2018-08-24T12:19:38.790Z,57.87
2018-08-24T12:20:39.667Z,58.69
2018-08-24T12:21:38.760Z,60.24
2018-08-24T12:22:38.986Z,60.40
2018-08-24T12:23:38.879Z,60.40
2018-08-24T12:24:38.917Z,59.21
2018-08-24T12:25:38.698Z,58.47
2018-08-24T12:26:38.996Z,57.56
2018-08-24T12:27:38.732Z,58.60
2018-08-24T12:28:38.713Z,59.47
2018-08-24T12:29:38.913Z,59.53
2018-08-24T12:30:38.818Z,60.02
2018-08-24T12:31:38.799Z,59.92
2018-08-24T12:32:38.926Z,59.95
2018-08-24T12:33:38.785Z,59.98
2018-08-24T12:34:38.819Z,59.05
2018-08-24T12:35:38.808Z,58.88
2018-08-24T12:36:38.824Z,57.62
2018-08-24T12:37:38.778Z,58.11
2018-08-24T12:38:38.780Z,56.75
2018-08-24T12:39:38.785Z,56.82
2018-08-24T12:40:38.813Z,57.44
2018-08-24T12:41:38.814Z,58.21
2018-08-24T12:42:38.817Z,58.14
2018-08-24T12:43:38.900Z,58.24
2018-08-24T12:44:38.830Z,58.24
2018-08-24T12:45:38.939Z,57.86
2018-08-24T12:46:38.927Z,56.60
2018-08-24T12:47:38.898Z,56.95
2018-08-24T12:48:38.946Z,56.67
2018-08-24T12:49:38.834Z,55.11
2018-08-24T12:50:38.895Z,55.70
2018-08-24T12:51:38.878Z,56.02
2018-08-24T12:52:38.886Z,55.73
2018-08-24T12:53:38.856Z,54.66
2018-08-24T12:54:38.914Z,55.11
2018-08-24T12:55:38.860Z,55.21
2018-08-24T12:56:38.869Z,55.02
2018-08-24T12:57:38.955Z,55.89
2018-08-24T12:58:39.535Z,55.41
2018-08-24T12:59:38.900Z,55.70